Time;durP1;ratioP1;P1;durP2;ratioP2;P2;SDS_P1;SDS_P2;PMS_P1;PMS_P2;Temp;Humidity;BMP_temperature;BMP_pressure;BME280_temperature;BME280_humidity;BME280_pressure;Samples;Min_cycle;Max_cycle;Signal;HPM_P1;HPM_P2
2023/10/28 00:00:17;;;;;;;4.47;2.08;;;;;;;17.42;100.00;93760.84;5036940;28;20030;-86
2023/10/28 00:02:43;;;;;;;6.22;2.00;;;;;;;17.31;100.00;93759.09;5010226;28;20025;-92
2023/10/28 00:05:09;;;;;;;3.83;1.77;;;;;;;17.34;100.00;93758.63;5008599;28;20034;-94
2023/10/28 00:07:35;;;;;;;4.18;1.73;;;;;;;17.38;100.00;93776.22;5028069;28;20021;-94
2023/10/28 00:10:02;;;;;;;5.18;1.80;;;;;;;17.23;100.00;93765.56;5025826;28;20037;-94
2023/10/28 00:12:28;;;;;;;6.70;2.45;;;;;;;17.10;100.00;93771.13;5000199;28;20171;-93
2023/10/28 00:14:54;;;;;;;6.38;2.10;;;;;;;16.93;100.00;93782.63;5025106;28;20115;-87
2023/10/28 00:17:19;;;;;;;6.38;2.28;;;;;;;16.80;100.00;93791.56;5042818;28;20486;-94
2023/10/28 00:19:46;;;;;;;4.90;2.00;;;;;;;16.80;100.00;93770.66;5011745;28;20521;-93
2023/10/28 00:22:12;;;;;;;8.95;2.03;;;;;;;16.63;100.00;93772.50;5012425;28;20033;-89
2023/10/28 00:24:38;;;;;;;3.95;2.30;;;;;;;16.35;100.00;93779.28;5042310;28;20613;-91
2023/10/28 00:27:04;;;;;;;5.53;1.98;;;;;;;16.48;100.00;93782.63;5027564;28;20456;-91
2023/10/28 00:29:29;;;;;;;5.07;2.00;;;;;;;16.43;100.00;93787.78;5018227;28;20055;-91
2023/10/28 00:31:55;;;;;;;7.47;2.38;;;;;;;16.32;100.00;93782.38;5027594;28;20405;-87
2023/10/28 00:34:20;;;;;;;6.97;2.10;;;;;;;16.38;100.00;93798.94;5039273;28;20069;-87
2023/10/28 00:36:46;;;;;;;5.30;2.25;;;;;;;16.27;100.00;93790.13;5025805;28;20391;-85
2023/10/28 00:39:12;;;;;;;5.45;2.13;;;;;;;16.24;100.00;93808.91;5028493;28;20033;-93
2023/10/28 00:41:37;;;;;;;7.93;2.17;;;;;;;15.94;100.00;93786.63;5035467;28;20040;-90
2023/10/28 00:44:03;;;;;;;3.42;2.00;;;;;;;15.87;100.00;93805.03;5026584;28;20032;-95
2023/10/28 00:46:28;;;;;;;5.25;2.42;;;;;;;15.86;100.00;93795.59;5026842;28;20020;-91
2023/10/28 00:48:54;;;;;;;3.78;1.92;;;;;;;15.63;100.00;93800.91;5020039;28;20083;-94
2023/10/28 00:51:19;;;;;;;6.45;2.30;;;;;;;15.70;100.00;93796.34;5043707;28;20062;-87
2023/10/28 00:53:45;;;;;;;7.45;2.28;;;;;;;15.70;100.00;93810.19;5040896;28;20044;-91
2023/10/28 00:56:12;;;;;;;4.97;2.20;;;;;;;15.62;100.00;93807.13;5039704;28;20067;-91
2023/10/28 00:58:39;;;;;;;5.63;2.00;;;;;;;15.74;100.00;93818.34;5030756;28;20028;-91
2023/10/28 01:01:06;;;;;;;5.45;2.20;;;;;;;15.73;100.00;93829.84;5044584;28;20025;-93
2023/10/28 01:03:31;;;;;;;7.78;2.25;;;;;;;15.73;100.00;93820.16;5055671;28;20028;-91
2023/10/28 01:05:57;;;;;;;5.60;2.13;;;;;;;15.74;100.00;93826.19;5018363;28;20036;-91
2023/10/28 01:08:23;;;;;;;6.35;2.30;;;;;;;15.49;100.00;93830.88;5026988;28;20421;-88
2023/10/28 01:10:48;;;;;;;7.00;2.45;;;;;;;15.20;100.00;93850.81;5045086;28;20024;-90
2023/10/28 01:13:13;;;;;;;3.45;2.20;;;;;;;15.05;100.00;93838.22;5043801;28;20032;-89
2023/10/28 01:15:39;;;;;;;6.43;3.00;;;;;;;14.97;100.00;93851.56;5041554;28;20083;-89
2023/10/28 01:18:05;;;;;;;6.97;2.42;;;;;;;15.08;100.00;93863.03;5049213;28;20029;-88
2023/10/28 01:20:31;;;;;;;5.75;2.08;;;;;;;15.21;100.00;93857.63;5040068;28;20106;-90
2023/10/28 01:22:58;;;;;;;6.80;2.55;;;;;;;15.13;100.00;93865.75;5015129;28;20492;-91
2023/10/28 01:25:25;;;;;;;6.32;2.90;;;;;;;14.90;100.00;93850.88;5035780;28;20037;-93
2023/10/28 01:27:50;;;;;;;5.38;2.40;;;;;;;14.96;100.00;93863.00;5040214;28;20068;-95
2023/10/28 01:30:16;;;;;;;5.05;2.78;;;;;;;14.83;100.00;93849.41;5052985;28;20498;-91
2023/10/28 01:32:42;;;;;;;6.20;2.70;;;;;;;15.02;100.00;93869.97;5039127;28;20498;-87
2023/10/28 01:35:11;;;;;;;6.90;2.70;;;;;;;14.93;100.00;93858.25;5003722;28;20060;-91
2023/10/28 01:37:37;;;;;;;5.17;2.37;;;;;;;15.01;100.00;93865.75;5041287;28;20024;-89
2023/10/28 01:40:09;;;;;;;5.68;2.92;;;;;;;14.87;100.00;93866.16;5031316;28;20127;-91
2023/10/28 01:42:34;;;;;;;8.20;2.55;;;;;;;14.98;100.00;93866.22;5020864;28;20029;-94
2023/10/28 01:45:00;;;;;;;4.57;2.60;;;;;;;15.26;100.00;93855.13;5032157;28;20039;-93
2023/10/28 01:47:26;;;;;;;6.53;2.67;;;;;;;15.11;100.00;93842.53;5027785;28;20029;-93
2023/10/28 01:49:51;;;;;;;6.30;2.42;;;;;;;15.23;100.00;93856.38;5054873;28;20014;-89
2023/10/28 01:52:18;;;;;;;5.88;2.65;;;;;;;15.15;100.00;93861.94;5022561;28;20411;-93
2023/10/28 01:54:44;;;;;;;4.20;2.50;;;;;;;15.08;100.00;93856.03;5024545;28;20028;-93
2023/10/28 01:57:10;;;;;;;3.97;2.72;;;;;;;14.85;100.00;93842.94;5039514;28;20033;-91
2023/10/28 01:59:37;;;;;;;7.05;2.78;;;;;;;14.84;100.00;93871.81;5037828;28;20370;-94
2023/10/28 02:02:03;;;;;;;6.10;2.42;;;;;;;14.77;100.00;93887.56;5036036;28;20041;-92
2023/10/28 02:04:30;;;;;;;6.25;2.80;;;;;;;14.62;100.00;93874.94;5016585;28;20115;-92
2023/10/28 02:06:55;;;;;;;6.13;2.85;;;;;;;14.60;100.00;93873.59;5021189;28;20040;-93
2023/10/28 02:09:21;;;;;;;5.60;2.80;;;;;;;14.42;100.00;93878.84;5022930;28;20025;-94
2023/10/28 02:11:49;;;;;;;5.53;2.92;;;;;;;14.41;100.00;93882.47;5040557;28;20033;-93
2023/10/28 02:14:15;;;;;;;5.07;2.75;;;;;;;14.27;100.00;93892.22;5060114;28;20494;-93
2023/10/28 02:16:41;;;;;;;8.25;2.40;;;;;;;14.29;100.00;93876.41;5042305;28;20123;-95
2023/10/28 02:19:06;;;;;;;5.60;3.75;;;;;;;14.29;100.00;93892.78;5026298;28;20470;-94
2023/10/28 02:21:32;;;;;;;7.43;3.13;;;;;;;14.22;100.00;93879.06;5038961;28;20024;-93
2023/10/28 02:23:59;;;;;;;5.90;2.92;;;;;;;14.04;100.00;93876.47;5037751;28;20041;-94
2023/10/28 02:26:25;;;;;;;6.03;2.85;;;;;;;14.21;100.00;93900.91;5035974;28;20033;-93
2023/10/28 02:28:50;;;;;;;3.25;2.60;;;;;;;14.27;100.00;93893.03;5044607;28;20071;-93
2023/10/28 02:31:16;;;;;;;3.88;3.10;;;;;;;14.18;100.00;93909.97;5065635;28;20123;-89
2023/10/28 02:33:41;;;;;;;7.15;3.55;;;;;;;14.32;100.00;93909.81;5047055;28;20040;-91
2023/10/28 02:36:08;;;;;;;4.35;2.67;;;;;;;14.24;100.00;93892.66;5029075;28;20036;-93
2023/10/28 02:38:34;;;;;;;8.80;3.33;;;;;;;14.22;100.00;93915.53;5026787;28;20021;-90
2023/10/28 02:41:00;;;;;;;3.70;2.70;;;;;;;14.17;100.00;93902.38;5010251;28;20025;-91
2023/10/28 02:43:25;;;;;;;6.85;3.03;;;;;;;14.00;100.00;93902.16;5019178;28;20156;-91
2023/10/28 02:45:50;;;;;;;3.38;2.92;;;;;;;14.00;100.00;93909.97;5028996;28;20384;-93
2023/10/28 02:48:16;;;;;;;6.68;2.72;;;;;;;13.85;100.00;93919.94;5026709;28;20036;-93
2023/10/28 02:50:41;;;;;;;4.15;2.80;;;;;;;13.78;100.00;93921.00;5028003;28;20033;-96
2023/10/28 02:56:25;;;;;;;4.57;3.08;;;;;;;13.71;100.00;93952.31;5198903;22;20107;-93
2023/10/28 02:58:51;;;;;;;4.97;2.75;;;;;;;13.49;100.00;93951.91;5074398;28;20038;-95
2023/10/28 03:01:17;;;;;;;6.57;2.72;;;;;;;13.83;100.00;93981.03;5095534;28;20012;-96
2023/10/28 03:03:44;;;;;;;5.38;2.50;;;;;;;13.48;100.00;93965.13;5077872;28;20016;-96
2023/10/28 03:06:10;;;;;;;5.47;2.92;;;;;;;13.52;100.00;93959.28;5057289;28;20508;-93
2023/10/28 03:08:35;;;;;;;7.65;2.67;;;;;;;13.47;100.00;93947.94;5053595;28;20219;-93
2023/10/28 03:11:01;;;;;;;4.38;2.80;;;;;;;13.28;100.00;93967.09;5053197;28;20641;-92
2023/10/28 03:13:28;;;;;;;7.78;2.58;;;;;;;13.39;100.00;93992.41;5067789;28;20474;-96
2023/10/28 03:15:53;;;;;;;3.67;2.60;;;;;;;13.50;100.00;93979.50;5075954;28;20114;-95
2023/10/28 03:18:22;;;;;;;3.95;2.80;;;;;;;13.44;100.00;93984.75;5076720;28;20078;-95
2023/10/28 03:20:56;;;;;;;5.43;3.00;;;;;;;13.45;100.00;93988.97;5084396;28;20100;-96
2023/10/28 03:23:22;;;;;;;7.55;3.25;;;;;;;13.59;100.00;93982.63;5115975;28;20067;-96
2023/10/28 03:25:48;;;;;;;4.05;3.00;;;;;;;13.40;100.00;93999.19;5065860;28;20062;-96
2023/10/28 03:28:13;;;;;;;4.05;3.40;;;;;;;13.44;100.00;94006.38;5059237;28;20028;-95
2023/10/28 03:30:39;;;;;;;5.70;3.15;;;;;;;13.54;100.00;93985.88;5051560;28;20036;-95
2023/10/28 03:33:04;;;;;;;5.30;2.60;;;;;;;13.44;100.00;93974.34;5068515;28;20466;-88
2023/10/28 03:35:30;;;;;;;3.97;2.47;;;;;;;13.40;100.00;93996.59;5048551;28;20085;-87
2023/10/28 03:37:55;;;;;;;8.63;2.58;;;;;;;13.17;100.00;94008.34;5068343;28;20028;-87
2023/10/28 03:43:13;;;;;;;5.28;2.90;;;;;;;13.04;100.00;94005.00;5281321;22;20233;-87
2023/10/28 03:45:39;;;;;;;7.03;3.47;;;;;;;13.10;100.00;94033.59;5067817;28;20481;-88
2023/10/28 03:48:04;;;;;;;4.00;3.08;;;;;;;13.14;100.00;94041.78;5072101;28;20089;-93
2023/10/28 03:53:05;;;;;;;22.65;20.23;;;;;;;12.86;100.00;94036.91;5241867;22;20052;-86
2023/10/28 03:55:30;;;;;;;12.13;10.93;;;;;;;13.06;100.00;94068.78;5045931;28;20032;-86
2023/10/28 03:57:56;;;;;;;33.95;30.33;;;;;;;13.13;100.00;94077.38;5048486;28;20464;-91
2023/10/28 04:00:21;;;;;;;26.10;23.65;;;;;;;13.31;100.00;94052.47;5049184;28;20110;-90
2023/10/28 04:02:47;;;;;;;13.88;12.63;;;;;;;13.12;100.00;94025.59;5045104;28;20101;-87
2023/10/28 04:05:12;;;;;;;10.85;9.75;;;;;;;12.92;100.00;94049.06;5034469;28;20051;-87
2023/10/28 04:07:38;;;;;;;7.07;5.47;;;;;;;13.01;100.00;94075.59;5045953;28;20036;-88
2023/10/28 04:10:07;;;;;;;7.00;6.13;;;;;;;12.91;100.00;94042.25;5044889;28;20024;-87
2023/10/28 04:12:32;;;;;;;;;;;;;;;13.03;100.00;94076.22;5038753;28;20028;-88
2023/10/28 04:14:58;;;;;;;6.80;4.43;;;;;;;12.78;100.00;94059.72;5048643;28;20404;-90
2023/10/28 04:17:24;;;;;;;3.95;3.58;;;;;;;12.94;100.00;94072.25;5047345;28;20029;-87
2023/10/28 04:19:50;;;;;;;3.63;3.28;;;;;;;12.94;100.00;94067.81;5043871;28;20032;-91
2023/10/28 04:22:15;;;;;;;4.85;3.60;;;;;;;12.77;100.00;94060.72;5029994;28;20040;-89
2023/10/28 04:24:41;;;;;;;6.68;3.25;;;;;;;12.68;100.00;94063.53;5033309;28;20036;-89
2023/10/28 04:27:07;;;;;;;5.18;3.88;;;;;;;12.50;100.00;94063.41;5035821;28;20024;-88
2023/10/28 04:29:32;;;;;;;8.60;3.70;;;;;;;12.67;100.00;94066.34;5028722;28;21022;-88
2023/10/28 04:31:58;;;;;;;8.70;4.15;;;;;;;12.63;100.00;94067.75;5046304;28;20055;-91
2023/10/28 04:34:23;;;;;;;6.60;3.78;;;;;;;12.65;100.00;94060.53;5034545;28;20113;-90
2023/10/28 04:36:48;;;;;;;6.07;3.58;;;;;;;12.62;100.00;94097.31;5050060;28;20102;-91
2023/10/28 04:39:14;;;;;;;7.68;3.70;;;;;;;12.67;100.00;94087.13;5043060;28;20024;-87
2023/10/28 04:41:39;;;;;;;5.70;3.05;;;;;;;12.67;100.00;94074.94;5031796;28;20029;-88
2023/10/28 04:44:05;;;;;;;6.07;3.50;;;;;;;12.79;100.00;94090.69;5036570;28;20033;-86
2023/10/28 04:46:30;;;;;;;7.40;5.10;;;;;;;12.84;100.00;94121.25;5006024;28;20063;-92
2023/10/28 04:48:56;;;;;;;5.85;4.72;;;;;;;12.79;100.00;94116.66;5036453;28;20079;-93
2023/10/28 04:51:21;;;;;;;7.32;4.78;;;;;;;12.69;100.00;94119.69;5024585;28;20029;-92
2023/10/28 04:53:47;;;;;;;9.27;6.43;;;;;;;12.52;100.00;94109.97;5038415;28;20052;-87
2023/10/28 04:56:13;;;;;;;7.15;5.45;;;;;;;12.48;100.00;94119.97;5024504;28;20025;-90
2023/10/28 05:22:01;;;;;;;6.10;4.60;;;;;;;12.96;100.00;94214.00;5097195;22;20068;-94
2023/10/28 05:24:26;;;;;;;10.27;5.43;;;;;;;12.91;100.00;94199.97;5009240;28;20036;-95
2023/10/28 05:29:27;;;;;;;10.65;7.00;;;;;;;13.00;100.00;94189.16;5126004;22;20060;-94
2023/10/28 05:31:56;;;;;;;8.05;6.35;;;;;;;13.04;100.00;94186.97;5023396;28;20037;-96
2023/10/28 05:34:23;;;;;;;8.65;6.45;;;;;;;12.96;100.00;94190.59;5014560;28;20040;-93
2023/10/28 05:36:49;;;;;;;10.38;7.10;;;;;;;13.01;100.00;94179.56;5010048;28;20116;-91
2023/10/28 05:39:15;;;;;;;10.38;6.90;;;;;;;13.00;100.00;94172.78;5012814;28;20091;-91
2023/10/28 05:41:41;;;;;;;8.70;5.72;;;;;;;13.09;100.00;94169.00;5010694;28;20033;-88
2023/10/28 05:44:06;;;;;;;7.75;4.40;;;;;;;13.32;100.00;94192.72;5010053;28;20033;-88
2023/10/28 05:46:32;;;;;;;3.95;3.47;;;;;;;13.57;100.00;94177.19;5011112;28;20063;-95
2023/10/28 05:54:47;;;;;;;7.35;3.03;;;;;;;13.76;100.00;94163.28;5042775;23;20049;-94
2023/10/28 05:57:13;;;;;;;9.02;2.88;;;;;;;13.85;100.00;94162.00;4999217;28;20038;-92
2023/10/28 05:59:39;;;;;;;7.03;2.35;;;;;;;13.72;100.00;94162.09;5033692;28;20056;-96
2023/10/28 06:02:05;;;;;;;5.85;3.20;;;;;;;13.98;100.00;94143.69;5014129;28;20022;-96
2023/10/28 06:04:33;;;;;;;5.07;2.50;;;;;;;14.09;100.00;94143.03;5013586;28;20101;-96
2023/10/28 06:06:59;;;;;;;6.97;2.55;;;;;;;14.07;100.00;94149.44;5025210;28;20047;-95
2023/10/28 06:09:25;;;;;;;9.48;2.65;;;;;;;14.23;100.00;94154.91;5039964;28;20037;-96
2023/10/28 06:11:50;;;;;;;5.85;3.33;;;;;;;14.18;100.00;94133.94;5010997;28;20062;-94
2023/10/28 06:14:16;;;;;;;7.70;2.83;;;;;;;14.54;100.00;94141.06;5019637;28;20056;-95
2023/10/28 06:16:43;;;;;;;4.93;3.25;;;;;;;14.25;100.00;94087.78;5101244;22;20837;-96
2023/10/28 06:19:10;;;;;;;9.65;3.72;;;;;;;14.25;100.00;94113.06;5027527;28;20042;-96
2023/10/28 06:21:35;;;;;;;6.65;4.75;;;;;;;14.39;100.00;94132.78;5024267;28;20049;-96
2023/10/28 06:24:02;;;;;;;6.80;4.90;;;;;;;14.55;100.00;94116.59;5021808;28;20033;-96
2023/10/28 06:26:28;;;;;;;6.50;4.75;;;;;;;14.94;100.00;94107.56;5021339;28;20068;-96
2023/10/28 06:28:55;;;;;;;7.68;4.00;;;;;;;15.01;100.00;94070.97;5032408;28;20006;-96
2023/10/28 06:31:20;;;;;;;8.15;3.47;;;;;;;15.42;100.00;94106.75;5035692;28;20049;-96
2023/10/28 06:33:47;;;;;;;6.50;4.18;;;;;;;15.71;100.00;94077.28;5040072;28;20820;-96
2023/10/28 06:38:50;;;;;;;6.32;2.72;;;;;;;16.24;100.00;94075.44;5957286;23;20049;-95
2023/10/28 06:41:15;;;;;;;5.15;2.08;;;;;;;16.36;100.00;94072.81;5028527;28;20028;-96
2023/10/28 06:43:41;;;;;;;2.88;2.30;;;;;;;16.59;100.00;94048.50;5003913;28;20124;-96
2023/10/28 06:46:06;;;;;;;4.93;2.70;;;;;;;17.22;100.00;94106.00;5026939;28;20033;-95
2023/10/28 06:48:33;;;;;;;4.30;2.50;;;;;;;17.37;100.00;94093.22;5008892;28;20022;-94
2023/10/28 06:51:00;;;;;;;4.57;2.13;;;;;;;17.22;100.00;94046.63;5006964;28;20045;-94
2023/10/28 06:53:25;;;;;;;3.40;2.15;;;;;;;17.45;100.00;94064.06;4990827;28;20044;-93
2023/10/28 06:55:51;;;;;;;13.32;1.83;;;;;;;17.67;100.00;94093.00;5007046;28;20030;-94
2023/10/28 06:58:16;;;;;;;3.95;1.60;;;;;;;17.88;100.00;94074.00;5022676;28;20029;-95
2023/10/28 07:00:42;;;;;;;4.85;2.17;;;;;;;18.16;100.00;94062.66;4997363;28;20311;-92
2023/10/28 07:03:08;;;;;;;6.60;2.20;;;;;;;18.10;100.00;94061.78;5017726;28;20040;-93
2023/10/28 07:05:34;;;;;;;6.88;1.80;;;;;;;18.46;100.00;94076.22;5011677;28;20096;-92
2023/10/28 07:07:59;;;;;;;5.78;2.15;;;;;;;18.55;100.00;94081.88;5023933;28;20110;-90
2023/10/28 07:10:28;;;;;;;2.97;1.85;;;;;;;18.61;100.00;94088.78;4990091;28;20555;-92
2023/10/28 07:12:53;;;;;;;6.20;1.70;;;;;;;18.71;100.00;94081.84;5007392;28;20514;-92
2023/10/28 07:15:19;;;;;;;5.45;1.80;;;;;;;19.16;100.00;94089.50;5002620;28;20018;-91
2023/10/28 07:17:44;;;;;;;6.40;2.17;;;;;;;19.07;100.00;94050.78;5004534;28;20030;-91
2023/10/28 07:20:10;;;;;;;7.07;2.00;;;;;;;19.26;100.00;94091.44;5019720;28;20006;-91
2023/10/28 07:22:36;;;;;;;3.42;1.85;;;;;;;19.33;100.00;94092.84;5002130;28;20022;-92
2023/10/28 07:25:04;;;;;;;6.43;2.10;;;;;;;19.33;100.00;94052.63;4988963;28;20030;-92
2023/10/28 07:27:31;;;;;;;3.10;1.88;;;;;;;19.45;100.00;94056.78;5007994;28;20088;-92
2023/10/28 07:29:59;;;;;;;4.43;2.00;;;;;;;19.51;100.00;94090.97;4994245;28;20116;-91
2023/10/28 07:32:25;;;;;;;4.03;1.70;;;;;;;19.59;100.00;94062.41;5011822;28;20057;-91
2023/10/28 07:34:51;;;;;;;6.13;1.83;;;;;;;20.08;100.00;94093.88;5001482;28;20029;-95
2023/10/28 07:37:16;;;;;;;5.07;1.77;;;;;;;20.57;100.00;94081.38;5002673;28;20103;-93
2023/10/28 07:39:43;;;;;;;4.97;1.95;;;;;;;21.33;100.00;94091.28;5005467;28;20144;-91
2023/10/28 07:42:08;;;;;;;4.95;1.38;;;;;;;22.95;93.97;94092.22;4973758;28;20091;-88
2023/10/28 07:44:34;;;;;;;3.70;1.27;;;;;;;23.03;88.64;94083.75;4998111;28;20197;-87
2023/10/28 07:47:00;;;;;;;7.15;2.10;;;;;;;23.44;87.81;94107.41;4984621;28;20046;-91
2023/10/28 07:49:25;;;;;;;4.22;1.40;;;;;;;23.11;87.72;94103.53;4956418;28;20526;-87
2023/10/28 07:51:52;;;;;;;5.53;1.70;;;;;;;23.53;85.95;94103.16;4981012;28;20046;-90
2023/10/28 07:54:17;;;;;;;3.38;1.35;;;;;;;24.06;83.05;94104.97;4974272;28;20033;-84
2023/10/28 07:56:43;;;;;;;5.75;1.50;;;;;;;24.32;80.61;94100.31;4966443;28;20030;-87
2023/10/28 07:59:09;;;;;;;5.10;1.65;;;;;;;24.18;80.47;94098.56;4966448;28;20046;-88
2023/10/28 08:01:35;;;;;;;4.78;1.20;;;;;;;24.25;79.63;94122.84;4982061;28;20035;-84
2023/10/28 08:04:04;;;;;;;5.13;1.55;;;;;;;24.15;80.68;94115.78;4976229;28;20041;-87
2023/10/28 08:06:30;;;;;;;4.97;1.25;;;;;;;24.41;78.65;94119.81;4962884;28;20424;-84
2023/10/28 08:08:55;;;;;;;9.10;1.35;;;;;;;25.30;74.48;94115.81;4959507;28;20027;-85
2023/10/28 08:11:24;;;;;;;4.07;1.40;;;;;;;25.24;72.58;94106.34;4966685;28;20460;-89
2023/10/28 08:13:50;;;;;;;5.55;1.42;;;;;;;25.39;72.84;94116.78;4963277;28;20034;-83
2023/10/28 08:16:18;;;;;;;4.95;1.30;;;;;;;25.09;73.52;94120.56;4964941;28;20026;-85
2023/10/28 08:18:45;;;;;;;5.43;1.42;;;;;;;25.16;71.78;94112.28;4958997;28;20112;-87
2023/10/28 08:21:10;;;;;;;2.30;1.13;;;;;;;25.79;69.78;94120.03;4957459;28;20027;-85
2023/10/28 08:23:38;;;;;;;5.93;1.65;;;;;;;26.21;66.72;94109.38;4966010;28;21906;-89
2023/10/28 08:26:07;;;;;;;5.45;1.25;;;;;;;26.01;67.12;94099.81;4981334;28;20030;-85
2023/10/28 08:28:32;;;;;;;2.90;1.40;;;;;;;26.34;64.95;94110.50;4947268;28;20023;-84
2023/10/28 08:30:58;;;;;;;4.28;1.58;;;;;;;26.91;63.74;94099.47;4972009;28;20092;-84
2023/10/28 08:33:23;;;;;;;4.22;1.48;;;;;;;26.60;62.75;94107.16;4961427;28;20510;-85
2023/10/28 08:35:51;;;;;;;2.50;1.00;;;;;;;26.45;64.76;94112.75;4979522;28;20032;-84
2023/10/28 08:38:17;;;;;;;7.72;1.67;;;;;;;26.80;62.69;94115.88;4965480;28;20665;-89
2023/10/28 08:40:46;;;;;;;4.95;1.77;;;;;;;27.39;61.81;94118.53;4985521;28;20050;-85
2023/10/28 08:43:16;;;;;;;2.75;1.60;;;;;;;27.15;61.39;94125.91;4977936;28;20032;-83
2023/10/28 08:45:44;;;;;;;3.95;1.35;;;;;;;27.16;61.24;94124.84;4962584;28;20046;-84
2023/10/28 08:48:15;;;;;;;3.88;1.90;;;;;;;27.69;60.19;94125.94;4981071;28;20455;-84
2023/10/28 08:50:43;;;;;;;4.75;1.90;;;;;;;27.17;60.06;94118.41;4980236;28;20030;-85
2023/10/28 08:53:09;;;;;;;5.53;2.33;;;;;;;26.84;60.28;94111.59;4979891;28;20065;-83
2023/10/28 08:55:38;;;;;;;4.22;2.10;;;;;;;27.28;60.45;94130.47;4980587;28;20026;-85
2023/10/28 08:58:06;;;;;;;6.20;2.42;;;;;;;27.65;58.47;94121.50;4980384;28;20507;-85
2023/10/28 09:00:34;;;;;;;4.53;2.50;;;;;;;27.05;60.25;94123.44;4964799;28;20117;-84
2023/10/28 09:03:01;;;;;;;7.43;3.40;;;;;;;27.02;60.82;94113.38;4980596;28;20488;-85
2023/10/28 09:05:26;;;;;;;9.70;3.30;;;;;;;27.29;59.79;94117.97;4977138;28;20029;-86
2023/10/28 09:07:51;;;;;;;5.28;2.95;;;;;;;27.83;57.33;94123.28;4981485;28;20453;-85
2023/10/28 09:10:17;;;;;;;3.75;1.98;;;;;;;28.08;54.54;94117.44;4979348;28;20488;-83
2023/10/28 09:12:46;;;;;;;4.57;2.45;;;;;;;27.83;54.91;94117.16;4981287;28;20023;-86
2023/10/28 09:15:12;;;;;;;4.80;1.92;;;;;;;28.16;54.07;94121.25;4984933;28;20022;-91
2023/10/28 09:17:39;;;;;;;5.93;1.65;;;;;;;28.71;50.92;94122.63;4968515;28;20554;-86
2023/10/28 09:20:09;;;;;;;4.95;2.00;;;;;;;28.53;52.37;94122.81;4965098;28;20030;-90
2023/10/28 09:22:40;;;;;;;11.05;3.88;;;;;;;28.80;55.61;94116.59;4963376;28;20034;-88
2023/10/28 09:25:08;;;;;;;4.22;2.10;;;;;;;28.38;52.76;94123.16;4950860;28;20096;-85
2023/10/28 09:27:34;;;;;;;5.40;1.77;;;;;;;28.93;50.77;94119.16;4958703;28;20037;-78
2023/10/28 09:30:04;;;;;;;6.72;2.17;;;;;;;28.65;50.87;94118.53;4985820;28;20067;-86
2023/10/28 09:32:32;;;;;;;6.47;1.90;;;;;;;28.85;50.65;94116.44;4950200;28;20037;-84
2023/10/28 09:34:59;;;;;;;4.43;1.73;;;;;;;28.69;48.72;94108.03;4963869;28;20034;-83
2023/10/28 09:37:24;;;;;;;4.40;1.58;;;;;;;28.55;50.02;94104.63;4963291;28;20458;-87
2023/10/28 09:39:50;;;;;;;3.58;1.60;;;;;;;28.17;52.21;94107.63;4960948;28;20050;-85
2023/10/28 09:42:16;;;;;;;4.53;1.80;;;;;;;28.40;50.21;94108.44;4961114;28;20365;-84
2023/10/28 09:44:44;;;;;;;7.28;1.88;;;;;;;28.74;48.68;94100.69;4978818;28;20053;-83
2023/10/28 09:47:14;;;;;;;5.70;1.85;;;;;;;29.13;47.86;94115.19;4977938;28;20105;-86
2023/10/28 09:49:42;;;;;;;4.25;1.45;;;;;;;28.53;49.57;94107.59;4959710;28;20121;-86
2023/10/28 09:52:11;;;;;;;9.10;1.92;;;;;;;27.92;49.87;94105.50;4969631;28;20053;-78
2023/10/28 09:54:37;;;;;;;7.85;1.63;;;;;;;27.90;50.04;94104.22;4975879;28;20466;-89
2023/10/28 09:57:03;;;;;;;5.15;1.58;;;;;;;28.22;49.52;94101.41;4962849;28;20057;-79
2023/10/28 09:59:33;;;;;;;4.88;1.65;;;;;;;28.13;48.96;94103.19;4964036;28;20042;-81
2023/10/28 10:02:21;;;;;;;7.93;1.70;;;;;;;28.42;49.04;94106.25;4963515;28;20015;-90
2023/10/28 10:04:49;;;;;;;5.95;1.90;;;;;;;28.14;50.52;94112.78;4982612;28;20032;-88
2023/10/28 10:07:16;;;;;;;8.40;1.73;;;;;;;27.77;51.08;94109.25;4983349;28;20039;-89
2023/10/28 10:09:48;;;;;;;7.00;1.60;;;;;;;28.24;50.34;94108.00;4962496;28;20034;-86
2023/10/28 10:12:14;;;;;;;3.67;1.38;;;;;;;27.59;50.36;94101.41;4976000;28;20040;-84
2023/10/28 10:14:47;;;;;;;6.60;1.95;;;;;;;26.53;53.60;94098.78;5004744;28;20074;-84
2023/10/28 10:17:24;;;;;;;3.55;1.42;;;;;;;27.44;52.62;94102.50;4988446;28;20402;-85
2023/10/28 10:19:50;;;;;;;6.13;1.70;;;;;;;27.36;52.89;94100.50;4984245;28;20121;-88
2023/10/28 10:22:18;;;;;;;8.15;2.03;;;;;;;27.29;52.83;94078.84;4968435;28;20125;-87
2023/10/28 10:24:50;;;;;;;6.38;1.60;;;;;;;26.27;53.27;94092.28;4985326;28;20050;-82
2023/10/28 10:27:15;;;;;;;3.78;1.63;;;;;;;26.10;54.27;94084.78;4967091;28;20497;-80
2023/10/28 10:29:42;;;;;;;4.93;1.45;;;;;;;26.06;55.68;94086.47;4980608;28;20018;-85
2023/10/28 10:32:17;;;;;;;6.50;1.40;;;;;;;26.83;53.37;94088.75;4987866;28;20023;-83
2023/10/28 10:34:45;;;;;;;7.95;1.77;;;;;;;25.91;52.74;94075.28;4974240;28;20521;-81
2023/10/28 10:37:24;;;;;;;5.50;1.50;;;;;;;25.92;54.40;94080.31;4988615;28;20037;-83
2023/10/28 10:39:49;;;;;;;5.32;2.17;;;;;;;26.04;53.82;94083.31;4965302;28;20317;-83
2023/10/28 10:42:15;;;;;;;7.65;2.00;;;;;;;26.77;52.44;94073.94;4982162;28;20400;-83
2023/10/28 10:44:41;;;;;;;4.20;1.50;;;;;;;26.08;52.04;94076.34;4982555;28;20025;-81
2023/10/28 10:47:12;;;;;;;6.43;1.83;;;;;;;26.35;52.08;94078.34;4967514;28;20048;-81
2023/10/28 10:49:38;;;;;;;6.45;1.60;;;;;;;26.06;52.62;94081.16;4982318;28;20034;-82
2023/10/28 10:52:05;;;;;;;10.10;1.90;;;;;;;26.77;51.08;94077.38;4982111;28;20027;-83
2023/10/28 10:54:33;;;;;;;7.22;1.65;;;;;;;26.79;50.10;94067.25;4981847;28;20589;-83
2023/10/28 10:56:59;;;;;;;5.63;1.67;;;;;;;27.00;49.53;94067.69;4966799;28;20547;-84
2023/10/28 10:59:29;;;;;;;6.28;2.08;;;;;;;26.89;47.61;94068.97;4966335;28;20041;-83
2023/10/28 11:01:56;;;;;;;6.28;1.50;;;;;;;26.22;46.68;94060.50;4982536;28;20538;-84
2023/10/28 11:04:23;;;;;;;7.57;1.85;;;;;;;26.66;45.93;94066.13;4966355;28;20042;-87
2023/10/28 11:06:48;;;;;;;6.88;1.70;;;;;;;26.44;46.18;94065.19;4967334;28;20084;-84
2023/10/28 11:09:15;;;;;;;6.88;1.95;;;;;;;26.68;46.29;94071.94;4968732;28;20572;-86
2023/10/28 11:11:41;;;;;;;4.15;1.58;;;;;;;26.76;46.85;94075.81;4984799;28;20045;-87
2023/10/28 11:14:07;;;;;;;9.32;1.40;;;;;;;26.30;45.17;94065.16;4983336;28;20030;-79
2023/10/28 11:16:33;;;;;;;6.47;1.30;;;;;;;26.37;45.41;94073.53;4981022;28;20132;-81
2023/10/28 11:19:03;;;;;;;11.23;1.60;;;;;;;26.11;46.40;94064.34;4981084;28;21330;-83
2023/10/28 11:21:33;;;;;;;4.43;1.15;;;;;;;26.43;45.88;94071.56;4962163;28;20039;-82
2023/10/28 11:23:59;;;;;;;7.35;1.70;;;;;;;26.31;44.79;94074.69;4969448;28;20529;-83
2023/10/28 11:26:25;;;;;;;3.90;1.42;;;;;;;26.10;43.34;94065.44;4953474;28;20177;-84
2023/10/28 11:28:52;;;;;;;8.38;1.20;;;;;;;26.23;44.28;94078.03;4972600;28;20041;-81
2023/10/28 11:31:19;;;;;;;7.55;1.65;;;;;;;26.45;44.90;94074.75;4972289;28;20030;-86
2023/10/28 11:33:45;;;;;;;5.50;1.58;;;;;;;26.33;44.49;94064.56;4977459;28;20069;-84
2023/10/28 11:36:11;;;;;;;4.72;1.20;;;;;;;25.90;42.78;94060.44;4978869;28;20089;-81
2023/10/28 11:38:36;;;;;;;5.32;1.42;;;;;;;25.63;40.92;94058.41;4967331;28;20483;-81
2023/10/28 11:41:06;;;;;;;3.47;1.00;;;;;;;26.15;43.45;94068.81;5005992;28;20681;-85
2023/10/28 11:43:33;;;;;;;3.38;1.23;;;;;;;25.56;42.96;94065.94;4971299;28;20035;-84
2023/10/28 11:45:58;;;;;;;4.70;1.10;;;;;;;25.63;42.46;94071.69;4971284;28;20365;-83
2023/10/28 11:48:24;;;;;;;5.20;1.70;;;;;;;25.52;43.33;94064.94;4969371;28;20072;-82
2023/10/28 11:50:50;;;;;;;8.73;1.50;;;;;;;25.50;44.39;94078.47;4969068;28;20037;-81
2023/10/28 11:53:17;;;;;;;5.38;1.25;;;;;;;25.50;43.12;94073.16;4968640;28;20034;-86
2023/10/28 11:55:42;;;;;;;4.88;1.50;;;;;;;25.58;43.46;94075.19;5003583;28;20034;-81
2023/10/28 11:58:10;;;;;;;3.13;1.60;;;;;;;25.82;42.04;94069.81;4969536;28;20531;-78
2023/10/28 12:00:36;;;;;;;15.52;1.60;;;;;;;25.36;40.88;94061.66;4985849;28;20053;-80
2023/10/28 12:03:04;;;;;;;4.30;1.15;;;;;;;25.32;42.08;94068.59;4958544;28;20047;-81
2023/10/28 12:05:30;;;;;;;3.97;1.50;;;;;;;25.11;43.23;94075.19;4982020;28;20215;-81
2023/10/28 12:07:56;;;;;;;8.27;1.27;;;;;;;24.85;43.92;94072.03;4983582;28;20034;-81